Date,TemperatureHighF,TemperatureAvgF,TemperatureLowF,DewpointHighF,DewpointAvgF,DewpointLowF,HumidityHigh,HumidityAvg,HumidityLow,PressureMaxIn,PressureMinIn,WindSpeedMaxMPH,WindSpeedAvgMPH,GustSpeedMaxMPH,PrecipitationSumIn
2013-1-1,64.4,56.9,49.7,53.0,45.7,40.0,78,67,47,30.17,30.06,8,3,11,0.00
2013-1-2,62.4,55.8,50.4,48.3,42.4,36.8,78,61,49,30.27,30.14,6,3,9,0.00
2013-1-3,59.4,55.4,50.1,47.1,42.1,37.3,71,61,51,30.62,30.28,10,4,16,0.00
2013-1-4,60.2,53.6,46.6,50.5,44.1,38.1,86,71,53,30.65,30.56,8,4,12,0.00
2013-1-5,60.5,53.2,46.7,53.2,45.9,37.6,88,76,61,30.58,30.38,7,4,8,0.00
2013-1-6,64.8,55.1,48.1,48.5,41.3,35.3,74,60,40,30.38,30.28,7,3,7,0.00
2013-1-7,62.2,54.0,47.0,50.3,42.4,34.3,77,65,52,30.31,30.25,6,4,7,0.00
2013-1-8,67.2,55.0,47.1,50.2,41.3,32.3,70,60,43,30.36,30.27,5,3,5,0.00
2013-1-9,65.1,55.0,46.2,45.9,42.2,37.5,73,63,48,30.31,30.21,10,3,15,0.00
2013-1-10,62.2,57.3,52.9,53.5,48.9,45.0,88,74,58,30.28,30.18,5,2,6,0.00
2013-1-11,63.9,56.4,51.3,52.8,48.0,45.2,81,74,59,30.20,30.13,5,2,6,0.00
2013-1-12,68.5,58.1,49.9,53.3,46.8,41.6,85,67,43,30.19,30.09,11,4,13,0.00
2013-1-13,61.1,56.2,50.9,47.6,38.7,30.0,82,54,31,30.08,29.97,13,6,18,0.00
2013-1-14,61.2,55.6,51.6,37.8,32.6,27.9,59,42,32,30.17,30.02,25,12,35,0.00
2013-1-15,63.3,55.0,47.0,39.0,34.4,29.3,59,46,30,30.16,30.05,17,7,22,0.00
2013-1-16,59.0,55.3,51.7,49.1,39.6,33.4,84,56,44,30.15,30.03,18,7,21,0.01
2013-1-17,67.2,61.1,54.1,50.6,45.0,38.7,83,57,39,30.05,29.95,12,7,24,0.00
2013-1-18,68.1,62.7,59.7,57.1,53.4,50.4,80,72,62,30.01,29.76,12,7,21,0.00
2013-1-19,59.9,55.8,50.0,55.1,48.6,38.5,93,78,57,29.76,29.29,19,9,20,0.93
2013-1-20,60.4,54.6,51.2,47.3,38.2,32.7,75,55,40,29.83,29.47,20,11,33,0.00
2013-1-21,64.5,56.7,51.1,51.5,38.2,31.8,91,53,31,29.99,29.69,18,8,22,0.18
2013-1-22,57.5,51.4,45.0,47.6,38.6,32.6,80,62,50,30.02,29.86,15,7,20,0.03
2013-1-23,57.8,51.6,45.1,41.9,35.1,27.0,82,55,31,30.14,29.92,17,10,24,0.11
2013-1-24,65.6,58.5,53.3,49.0,43.4,36.7,83,58,40,30.13,29.89,20,10,38,0.01
2013-1-25,61.2,57.0,51.5,51.2,44.8,37.4,81,64,48,30.04,29.96,11,3,13,0.00
2013-1-26,73.9,64.4,59.2,51.5,44.2,30.6,68,50,26,30.12,29.99,13,7,20,0.00
2013-1-27,65.8,58.5,51.7,51.9,42.7,33.0,77,56,38,30.13,30.06,13,4,17,0.00
2013-1-28,64.0,58.6,51.4,52.3,39.3,16.8,71,51,16,30.36,30.13,16,6,22,0.00
2013-1-29,61.4,53.7,48.4,49.2,39.0,26.6,78,58,37,30.37,30.31,5,3,5,0.00
2013-1-30,60.1,54.2,46.1,52.9,43.1,33.1,82,67,41,30.40,30.33,5,2,6,0.00
2013-1-31,65.9,58.3,52.5,52.1,38.8,30.5,77,49,33,30.46,30.37,6,3,8,0.00
2013-2-1,63.4,57.2,49.8,52.4,42.4,36.4,71,58,39,30.38,30.05,8,2,9,0.00
2013-2-2,64.8,60.8,54.7,48.8,37.6,28.5,66,43,29,30.18,29.95,16,9,21,0.00
2013-2-3,62.8,55.8,50.4,44.3,27.9,12.6,67,37,16,30.37,30.14,23,11,36,0.00
2013-2-4,57.1,51.7,47.1,43.3,37.8,29.6,76,59,44,30.43,30.35,6,4,8,0.00
2013-2-5,64.3,53.0,45.1,49.4,42.7,37.4,80,69,46,30.36,30.12,8,3,14,0.00
2013-2-6,64.1,59.2,53.3,45.6,33.4,14.9,65,40,17,30.14,30.00,13,6,16,0.00
2013-2-7,60.6,53.4,47.3,36.7,29.0,16.8,60,41,18,30.23,30.13,20,6,24,0.00
2013-2-8,64.7,53.5,44.6,38.9,31.8,24.4,63,46,22,30.18,29.95,13,4,18,0.00
2013-2-9,60.8,54.1,48.8,39.7,30.5,16.6,68,42,23,30.25,30.04,18,6,31,0.00
2013-2-10,59.9,53.1,44.8,43.5,36.7,25.0,70,55,28,30.26,29.97,11,5,15,0.00
2013-2-11,58.0,54.6,50.8,45.6,36.7,29.4,66,51,34,30.03,29.87,18,12,27,0.00
2013-2-12,58.8,53.4,48.0,33.9,30.5,26.2,58,42,32,30.12,29.98,17,10,21,0.00
2013-2-13,62.5,57.0,50.9,50.4,39.3,25.9,85,53,32,30.18,30.08,16,5,25,0.00
2013-2-14,64.3,57.4,50.8,50.9,45.4,40.4,84,65,50,30.20,30.12,5,2,6,0.00
2013-2-15,64.5,56.7,51.2,49.7,43.8,39.7,72,62,44,30.14,30.08,5,2,5,0.00
2013-2-16,59.2,54.2,48.9,51.2,46.1,41.3,83,74,64,30.12,30.04,5,2,6,0.00
2013-2-17,65.2,55.5,48.5,52.0,46.5,41.1,82,73,45,30.05,29.89,14,4,14,0.00
2013-2-18,64.2,56.1,50.8,53.6,48.5,43.0,85,76,59,29.92,29.80,6,2,7,0.01
2013-2-19,58.5,55.3,53.4,52.8,51.1,47.9,93,86,69,29.84,29.77,6,2,10,0.25
2013-2-20,59.1,55.1,51.8,51.4,49.1,44.8,93,81,62,30.00,29.81,10,2,10,0.02
2013-2-21,64.0,57.2,50.2,54.8,47.8,41.4,89,72,50,30.00,29.90,11,5,16,0.02
2013-2-22,59.9,57.1,52.2,55.5,52.5,44.3,92,85,68,29.90,29.69,14,5,16,0.54
2013-2-23,61.7,55.3,48.5,46.8,40.9,34.6,89,60,42,29.98,29.64,15,7,20,0.06
2013-2-24,63.1,54.4,49.4,38.6,32.0,27.9,56,43,29,30.07,29.98,13,5,15,0.00
2013-2-25,59.0,52.2,46.7,38.2,30.2,17.7,63,44,20,30.12,30.05,9,3,11,0.00
2013-2-26,55.2,49.8,43.5,35.8,31.1,25.0,58,49,39,30.13,30.07,8,4,10,0.00
2013-2-27,55.1,51.1,44.6,42.5,35.3,29.1,68,55,45,30.09,29.86,10,5,14,0.00
2013-2-28,54.6,50.1,43.0,44.8,37.7,31.3,87,63,44,29.85,29.70,12,6,17,0.38
2013-3-1,61.1,53.6,45.8,37.6,35.4,32.2,70,51,38,30.02,29.80,13,7,17,0.00
2013-3-2,58.3,55.4,50.9,44.1,37.8,31.9,64,52,42,30.02,29.92,12,5,18,0.00
2013-3-3,58.9,54.8,51.7,51.5,45.5,38.8,87,71,52,29.96,29.76,7,3,9,0.00
2013-3-4,65.9,57.7,51.9,53.1,48.1,37.3,90,73,35,29.75,29.35,11,4,19,0.07
2013-3-5,63.1,56.5,53.9,56.2,52.2,50.2,93,86,69,29.48,29.36,5,2,7,0.43
2013-3-6,66.0,58.4,54.6,59.4,54.7,51.4,96,88,71,29.81,29.45,9,3,14,0.75
2013-3-7,61.1,59.4,55.6,59.3,57.0,52.8,95,92,85,29.86,29.77,14,5,23,1.09
2013-3-8,68.6,61.1,53.2,57.4,53.6,50.3,90,77,58,29.91,29.83,11,5,18,0.00
2013-3-9,61.8,58.9,55.5,57.4,54.7,41.8,91,86,58,29.89,29.83,10,4,10,0.09
2013-3-10,63.5,56.4,51.1,53.6,47.9,40.0,84,73,51,29.92,29.83,8,4,12,0.02
2013-3-11,63.6,58.1,54.2,52.8,46.1,42.5,77,65,50,29.93,29.85,14,7,18,0.02
2013-3-12,57.6,54.8,52.7,53.6,49.5,42.9,95,83,58,29.89,29.59,13,5,19,0.34
2013-3-13,58.0,54.9,51.5,48.5,33.0,25.0,78,45,29,29.93,29.60,15,9,19,0.00
2013-3-14,62.7,55.0,48.5,29.6,23.9,16.9,42,30,20,30.05,29.91,12,8,18,0.00
2013-3-15,59.1,54.4,47.3,46.1,35.8,24.7,70,51,30,30.09,30.00,9,4,14,0.00
2013-3-16,58.3,53.0,49.9,47.7,42.1,35.3,88,68,42,30.03,29.83,5,2,6,0.05
2013-3-17,61.9,56.2,49.5,58.0,50.8,42.2,90,82,63,29.83,29.59,8,2,12,0.09
2013-3-18,68.9,61.4,56.7,55.1,45.6,29.2,90,59,31,29.77,29.64,9,5,13,0.01
2013-3-19,63.6,57.7,53.3,56.5,47.5,31.3,93,71,36,29.73,29.61,9,2,10,0.61
2013-3-20,67.7,60.6,54.4,55.7,44.2,36.5,93,58,34,30.08,29.64,13,6,20,0.00
2013-3-21,64.1,56.6,50.0,50.6,45.8,41.4,76,67,52,30.08,29.93,8,4,13,0.00
2013-3-22,65.4,57.1,50.8,55.6,47.5,41.7,82,71,48,29.93,29.80,10,4,13,0.00
2013-3-23,61.9,54.4,49.9,52.2,46.8,41.1,91,76,60,29.80,29.63,9,3,12,0.33
2013-3-24,63.1,57.0,51.2,53.4,46.1,40.7,91,67,55,29.91,29.65,14,8,17,0.02
2013-3-25,65.8,59.4,52.8,53.0,46.7,41.0,74,63,51,29.99,29.90,13,8,20,0.00
2013-3-26,67.1,60.8,55.5,55.6,51.5,45.7,81,72,59,29.89,29.76,13,5,18,0.00
2013-3-27,67.6,61.0,54.9,56.8,53.5,51.1,88,77,61,29.78,29.68,10,4,13,0.01
2013-3-28,69.3,63.0,58.4,56.6,51.7,48.0,82,67,53,29.99,29.71,12,6,21,0.00
2013-3-29,68.6,62.8,58.7,56.0,51.8,48.6,86,68,54,30.03,29.94,12,5,17,0.00
2013-3-30,73.9,65.8,58.5,59.6,52.4,44.3,94,66,38,30.02,29.90,14,7,21,0.22
2013-3-31,65.2,62.5,59.7,60.0,53.5,44.7,91,73,48,29.92,29.71,10,3,15,0.02
2013-4-1,69.5,62.9,56.2,55.7,46.9,40.1,92,59,35,29.86,29.64,15,10,27,0.09
2013-4-2,66.9,60.9,56.5,52.6,47.0,41.4,73,60,45,29.94,29.80,12,6,20,0.00
2013-4-3,61.8,57.7,53.3,53.7,49.9,44.2,89,76,58,29.81,29.63,9,3,9,0.13
2013-4-4,61.7,56.5,53.1,51.4,49.0,45.7,88,76,56,29.71,29.58,10,5,16,0.02
2013-4-5,60.8,56.1,52.7,54.8,50.1,39.8,91,81,49,29.87,29.65,10,4,14,0.29
2013-4-6,66.8,57.3,48.9,42.5,38.3,33.3,69,50,30,30.08,29.88,12,6,18,0.00
2013-4-7,61.5,57.0,50.3,48.6,40.6,33.6,68,55,40,30.09,29.97,10,3,16,0.00
2013-4-8,70.5,59.4,51.0,51.7,44.1,38.4,69,58,38,29.99,29.88,10,4,15,0.00
2013-4-9,75.0,64.1,57.2,51.0,44.7,37.4,64,50,30,30.00,29.89,12,3,15,0.00
2013-4-10,71.4,64.6,59.6,56.1,50.7,46.5,76,61,48,30.09,30.00,6,2,10,0.00
2013-4-11,73.7,64.7,58.6,57.8,54.2,50.4,79,69,52,30.05,29.93,8,2,10,0.00
2013-4-12,72.7,64.3,56.7,54.4,51.5,48.1,79,64,47,30.05,29.96,7,2,7,0.00
2013-4-13,66.4,61.7,56.7,57.4,52.2,47.8,83,71,58,30.13,30.02,7,3,10,0.00
2013-4-14,68.9,62.8,57.5,56.5,52.8,49.0,86,70,52,30.18,30.06,6,3,9,0.00
2013-4-15,65.7,61.2,56.4,57.2,55.4,52.4,87,81,73,30.21,30.12,7,2,9,0.00
2013-4-16,63.9,61.1,57.1,59.0,56.0,52.6,90,83,74,30.16,30.09,6,3,9,0.00
2013-4-17,63.3,60.7,59.1,57.7,56.7,55.5,91,87,79,30.18,30.11,6,2,9,0.00
2013-4-18,64.3,60.3,57.1,57.6,56.0,54.2,91,86,78,30.17,30.06,5,2,8,0.00
2013-4-19,62.9,60.1,56.0,57.8,55.7,51.9,89,86,82,30.11,30.01,6,2,8,0.00
2013-4-20,62.2,61.1,59.8,58.1,56.0,54.8,88,83,78,30.17,30.08,6,3,6,0.01
2013-4-21,63.8,60.4,57.4,57.0,55.5,51.5,90,84,65,30.13,29.99,3,1,6,0.00
2013-4-22,64.2,59.4,55.4,57.2,54.1,51.9,89,83,71,30.02,29.94,6,3,8,0.00
2013-4-23,64.2,60.1,54.7,54.8,52.0,50.4,88,75,63,30.15,30.01,9,4,14,0.06
2013-4-24,64.9,59.8,52.9,52.7,49.1,44.8,83,68,52,30.15,30.09,8,3,11,0.00
2013-4-25,67.2,60.4,54.6,55.7,50.9,46.3,83,72,50,30.10,29.88,6,2,8,0.00
2013-4-26,66.3,62.2,57.7,56.8,54.7,52.5,86,77,65,29.97,29.89,6,2,8,0.00
2013-4-27,70.3,63.6,58.0,59.2,55.4,53.2,86,75,59,29.88,29.65,14,5,23,0.00
2013-4-28,65.4,57.5,51.6,53.8,44.9,36.0,84,64,41,29.73,29.58,13,4,15,0.00
2013-4-29,58.7,52.9,48.2,45.4,40.0,35.7,75,62,42,29.85,29.71,8,4,16,0.00
2013-4-30,58.6,52.5,47.4,47.4,45.6,41.7,90,77,66,29.98,29.80,7,3,8,0.31
2013-5-1,64.1,56.3,48.7,51.5,46.2,39.8,82,69,46,30.03,29.95,7,3,9,0.00
2013-5-2,65.2,58.5,52.3,53.2,50.3,45.5,85,75,49,30.04,29.97,6,3,7,0.00
2013-5-3,63.6,60.6,57.3,56.8,52.1,49.2,81,74,63,30.08,29.99,7,2,9,0.00
2013-5-4,64.6,61.0,55.5,56.8,53.3,49.4,82,76,68,30.16,30.05,7,3,9,0.00
2013-5-5,67.4,61.8,56.0,57.6,54.3,50.7,83,76,64,30.17,30.08,5,3,7,0.00
2013-5-6,72.7,65.5,57.8,56.2,51.6,47.9,84,62,48,30.16,30.08,6,2,7,0.00
2013-5-7,75.5,68.1,61.6,57.6,51.4,45.4,66,55,41,30.12,30.01,4,2,5,0.00
2013-5-8,76.6,70.2,64.1,56.5,50.8,45.5,70,51,34,30.04,29.91,4,2,6,0.00
2013-5-9,86.6,72.5,63.0,60.9,54.6,45.8,74,55,27,29.97,29.91,5,2,7,0.00
2013-5-10,77.2,72.5,67.0,61.9,55.8,47.9,83,56,42,30.04,29.91,5,2,6,0.00
2013-5-11,68.3,65.6,61.6,62.3,60.2,56.4,90,83,76,30.08,30.00,6,2,9,0.00
2013-5-12,66.7,64.7,63.0,62.1,60.9,59.8,92,88,79,30.13,30.04,5,2,9,0.00
2013-5-13,67.7,64.6,61.9,61.9,59.9,56.9,93,85,70,30.13,29.99,6,2,8,0.02
2013-5-14,70.7,65.6,61.4,61.6,57.8,51.0,88,77,54,30.04,29.74,6,2,9,0.00
2013-5-15,74.1,64.5,59.1,58.3,53.3,36.0,84,69,25,29.73,29.57,15,6,20,0.00
2013-5-16,66.7,62.3,57.4,55.2,48.3,41.6,83,61,41,29.72,29.56,14,7,27,0.00
2013-5-17,64.0,58.9,56.2,56.3,50.8,45.7,86,75,62,29.73,29.66,13,5,16,0.06
2013-5-18,69.0,59.7,52.7,51.9,42.5,36.4,85,54,31,30.07,29.72,15,9,21,0.01
2013-5-19,65.8,60.7,54.4,49.6,44.9,40.3,65,56,44,30.09,30.05,11,6,21,0.00
2013-5-20,65.3,59.1,52.7,52.8,45.8,41.3,87,62,46,30.06,29.96,8,3,13,0.09
2013-5-21,57.4,56.1,54.6,51.7,50.4,48.5,87,81,75,30.11,29.94,5,1,7,0.02
2013-5-22,74.6,63.0,53.3,56.5,51.8,47.5,84,68,43,30.11,29.96,12,3,14,0.00
2013-5-23,79.5,69.6,61.9,57.8,53.6,49.0,71,57,43,29.99,29.90,8,3,22,0.00
2013-5-24,74.3,68.3,63.8,58.2,55.1,50.1,79,64,44,29.97,29.88,8,3,10,0.00
2013-5-25,67.7,63.2,59.3,59.3,57.3,55.7,89,81,72,30.05,29.95,6,2,8,0.00
2013-5-26,66.1,62.9,58.9,59.8,57.5,55.0,90,83,73,30.03,29.93,6,3,9,0.00
2013-5-27,71.0,63.6,58.2,57.9,54.5,48.9,88,73,52,29.96,29.84,13,4,17,0.00
2013-5-28,77.3,65.8,58.4,54.5,50.3,46.3,73,58,38,29.91,29.78,12,5,19,0.00
2013-5-29,78.7,69.5,59.4,51.6,43.8,36.3,64,42,23,29.95,29.87,14,6,17,0.00
2013-5-30,73.0,67.7,62.5,54.6,48.3,42.4,72,51,36,30.02,29.88,11,5,17,0.00
2013-5-31,73.8,64.7,57.5,56.9,51.4,37.5,75,63,27,30.02,29.90,6,3,10,0.00
2013-6-1,73.6,67.0,60.8,55.4,47.4,36.6,82,50,28,30.07,29.98,6,3,10,0.00
2013-6-2,71.2,64.8,58.8,56.2,46.3,42.3,73,52,36,30.05,29.97,6,4,7,0.00
2013-6-3,71.2,65.9,59.8,54.5,46.8,43.7,61,50,41,30.05,29.94,6,3,8,0.00
2013-6-4,71.9,66.7,59.6,56.1,49.6,43.8,69,54,44,30.00,29.85,7,3,8,0.00
2013-6-5,75.7,70.1,64.6,59.9,54.1,44.9,72,57,42,29.98,29.79,6,2,7,0.00
2013-6-6,73.6,67.0,60.9,59.2,54.8,48.1,78,65,51,30.04,29.94,6,2,9,0.00
2013-6-7,72.7,65.8,57.5,57.3,53.8,49.2,82,66,51,30.05,29.98,10,4,18,0.00
2013-6-8,71.3,66.0,59.2,55.2,49.4,43.2,68,56,38,30.03,29.93,13,6,20,0.00
2013-6-9,73.7,67.8,62.2,56.1,50.7,46.2,65,54,41,30.01,29.92,13,5,21,0.00
2013-6-10,75.2,68.6,63.8,59.1,53.7,47.3,80,60,47,30.06,29.97,11,2,13,0.00
2013-6-11,77.0,68.4,61.7,59.0,56.2,51.3,85,66,45,30.10,30.03,5,1,7,0.00
2013-6-12,74.9,69.8,64.0,63.0,59.6,54.4,80,70,54,30.12,30.05,6,2,8,0.00
2013-6-13,79.8,74.2,66.5,60.7,53.4,45.4,74,49,32,30.08,29.97,5,2,6,0.00
2013-6-14,82.5,75.3,70.8,58.2,54.1,50.4,61,48,37,30.01,29.94,5,2,6,0.00
2013-6-15,80.3,74.3,68.2,60.1,55.8,52.6,70,53,39,30.01,29.90,5,2,7,0.00
2013-6-16,76.5,71.1,66.7,65.4,61.2,52.3,90,72,43,29.97,29.82,7,3,9,0.00
2013-6-17,79.5,72.4,65.8,64.1,59.5,52.4,86,65,45,29.88,29.76,8,3,10,0.00
2013-6-18,73.0,68.1,63.9,56.2,50.3,45.3,70,53,40,29.94,29.81,15,6,21,0.00
2013-6-19,75.6,66.7,60.2,57.3,53.8,49.1,78,64,47,29.98,29.91,9,3,15,0.00
2013-6-20,71.0,66.0,60.3,61.0,57.0,51.9,85,73,62,30.04,29.95,6,2,7,0.00
2013-6-21,69.3,66.1,62.2,60.9,56.9,51.1,86,73,59,30.07,30.00,5,2,5,0.00
2013-6-22,74.1,68.8,62.9,58.9,55.6,50.9,78,63,45,30.15,30.07,6,3,8,0.00
2013-6-23,76.7,71.8,64.7,57.6,53.4,49.6,64,53,41,30.14,30.03,6,2,8,0.00
2013-6-24,75.2,71.0,66.2,60.9,56.6,51.6,73,61,51,30.13,30.05,6,3,10,0.00
2013-6-25,72.2,68.4,65.0,63.1,61.2,58.5,83,78,68,30.16,30.09,7,3,9,0.00
2013-6-26,71.7,68.2,65.5,62.5,61.6,59.4,89,80,66,30.18,30.11,7,3,9,0.00
2013-6-27,72.4,67.8,63.3,63.0,59.9,56.4,85,76,62,30.16,30.08,8,4,10,0.00
2013-6-28,72.6,69.4,64.7,60.8,57.8,53.4,80,67,55,30.20,30.09,8,3,11,0.00
2013-6-29,77.8,71.6,65.1,59.6,54.7,49.7,65,56,43,30.20,30.08,9,4,16,0.00
2013-6-30,79.4,72.6,65.5,60.3,56.5,53.2,70,58,42,30.13,29.97,5,2,8,0.00
2013-7-1,76.6,71.9,67.9,63.5,58.5,54.0,73,63,52,30.02,29.94,7,3,11,0.00
2013-7-2,74.6,71.0,67.0,64.8,61.1,57.5,80,71,57,30.03,29.95,5,2,8,0.00
2013-7-3,75.8,71.6,67.5,66.5,63.5,61.5,82,76,67,30.05,29.98,5,3,6,0.00
2013-7-4,73.0,70.8,67.7,67.2,65.5,61.4,88,83,78,30.10,30.02,7,3,9,0.00
2013-7-5,77.4,72.7,68.5,66.9,65.1,63.1,87,77,63,30.14,30.08,7,2,8,0.00
2013-7-6,76.4,71.9,66.7,65.1,62.8,59.6,79,73,62,30.15,30.08,7,3,8,0.00
2013-7-7,76.5,72.7,66.3,67.6,64.0,59.9,86,75,62,30.14,30.06,6,3,10,0.00
2013-7-8,79.1,72.9,68.7,61.7,58.9,56.5,70,62,51,30.12,30.04,6,4,8,0.00
2013-7-9,80.1,75.1,70.1,66.8,60.9,56.0,78,62,51,30.09,29.96,6,2,7,0.00
2013-7-10,85.9,77.3,71.1,69.8,61.8,56.9,82,60,39,30.02,29.82,5,2,7,0.00
2013-7-11,79.2,75.3,70.7,67.9,62.5,55.7,81,65,54,29.91,29.81,6,2,6,0.00
2013-7-12,79.9,73.9,70.4,70.2,65.2,57.7,85,75,55,30.01,29.88,6,2,7,0.00
2013-7-13,78.9,72.9,67.5,67.9,62.8,53.2,83,71,50,30.03,29.96,6,2,8,0.00
2013-7-14,78.5,73.4,66.8,65.5,57.4,38.5,82,59,30,30.03,29.96,7,2,8,0.00
2013-7-15,77.1,71.8,66.8,68.7,65.1,58.2,88,80,67,30.11,30.02,6,2,8,0.00
2013-7-16,79.5,74.3,68.3,68.5,64.8,59.6,87,73,54,30.10,30.03,5,2,6,0.00
2013-7-17,80.9,76.0,70.4,63.9,59.4,55.1,64,57,47,30.10,30.03,6,3,7,0.00
2013-7-18,79.7,74.9,70.8,70.8,62.9,53.9,84,67,50,30.07,29.98,7,4,8,0.00
2013-7-19,81.6,75.5,70.0,67.5,64.3,56.9,81,68,55,30.01,29.88,6,3,7,0.00
2013-7-20,81.2,76.0,70.3,66.8,63.8,60.4,74,66,55,29.94,29.88,5,3,8,0.00
2013-7-21,81.9,76.4,71.7,69.1,65.0,60.8,81,68,61,29.99,29.89,6,2,7,0.00
2013-7-22,80.3,76.5,71.6,69.5,66.2,62.5,76,71,62,30.01,29.94,7,2,8,0.00
2013-7-23,78.8,75.8,71.0,70.9,66.8,61.8,79,74,60,29.98,29.90,5,3,8,0.00
2013-7-24,81.1,76.2,71.6,71.0,64.9,59.1,81,69,50,30.01,29.93,5,2,8,0.00
2013-7-25,81.8,76.2,71.2,69.4,65.0,58.0,84,69,60,30.02,29.88,5,2,7,0.00
2013-7-26,89.6,78.6,72.1,70.0,63.0,52.9,84,61,29,29.97,29.79,7,3,9,0.00
2013-7-27,84.4,76.4,70.3,66.7,61.2,44.6,77,60,32,29.88,29.79,7,2,7,0.00
2013-7-28,84.3,75.9,68.8,62.9,58.5,49.1,75,57,32,30.02,29.88,8,3,13,0.00
2013-7-29,82.1,77.7,72.5,62.7,54.3,47.5,61,45,31,30.16,30.02,9,3,14,0.00
2013-7-30,83.2,77.1,71.0,63.7,56.0,50.1,59,49,33,30.16,30.09,7,3,11,0.00
2013-7-31,81.8,76.1,70.3,62.8,59.1,56.7,65,56,44,30.12,30.00,7,4,9,0.00
2013-8-1,79.1,75.2,71.6,70.0,59.8,53.0,87,60,44,30.02,29.88,6,3,9,0.00
2013-8-2,87.2,77.9,73.7,69.8,66.6,52.0,87,69,30,30.01,29.83,15,3,15,0.01
2013-8-3,79.7,76.2,72.6,71.2,68.6,59.9,87,78,61,30.03,29.94,6,2,7,0.00
2013-8-4,80.2,76.2,72.4,71.9,67.7,60.5,88,75,60,30.08,30.00,7,2,9,0.00
2013-8-5,80.4,77.4,75.3,73.1,70.9,66.6,88,81,74,30.05,29.90,6,2,9,0.00
2013-8-6,84.0,77.6,72.1,73.0,69.9,62.2,90,78,48,29.98,29.83,6,2,6,0.00
2013-8-7,87.9,78.9,71.0,68.0,62.4,56.4,76,58,36,29.86,29.77,9,3,15,0.00
2013-8-8,85.3,78.8,75.0,71.4,63.2,50.4,82,61,32,30.08,29.80,12,4,17,0.00
2013-8-9,80.2,76.9,71.3,69.6,65.7,60.5,83,69,54,30.15,30.08,10,3,11,0.00
2013-8-10,80.0,75.7,71.4,69.3,62.6,56.8,79,64,54,30.11,30.02,6,2,11,0.00
2013-8-11,82.7,76.0,69.5,66.5,60.7,56.0,74,60,43,30.06,29.98,7,3,10,0.00
2013-8-12,80.8,75.9,70.6,69.0,64.0,56.2,80,67,52,30.02,29.90,7,3,7,0.00
2013-8-13,79.9,75.0,69.9,71.0,67.1,59.8,85,77,70,29.98,29.91,6,3,8,0.00
2013-8-14,80.8,77.1,73.3,71.6,69.7,67.0,89,78,66,30.02,29.95,7,2,9,0.00
2013-8-15,82.4,77.1,71.3,68.7,65.7,62.0,77,68,57,30.04,29.98,5,3,7,0.00
2013-8-16,83.9,78.2,73.0,67.0,62.4,56.9,70,59,43,30.04,29.95,5,3,8,0.00
2013-8-17,81.1,76.6,73.1,71.4,65.3,57.4,85,69,48,30.02,29.95,6,2,8,0.00
2013-8-18,80.0,76.7,73.8,72.6,70.9,67.8,86,82,77,30.04,29.92,7,2,9,0.00
2013-8-19,80.8,77.1,72.8,72.0,69.2,59.4,85,77,58,30.06,29.95,7,2,9,0.00
2013-8-20,80.9,77.0,71.7,73.5,69.7,61.0,85,78,67,30.09,30.01,7,3,8,0.00
2013-8-21,82.5,77.4,72.3,71.1,69.0,66.5,83,76,62,30.10,30.00,5,3,8,0.00
2013-8-22,81.4,77.4,73.8,72.8,70.4,67.5,85,79,66,30.03,29.87,5,2,8,0.00
2013-8-23,80.0,77.2,73.1,74.0,71.1,68.7,86,81,73,29.93,29.85,6,2,8,0.00
2013-8-24,81.8,78.0,74.1,71.8,69.0,62.4,82,74,55,29.94,29.85,6,2,7,0.00
2013-8-25,79.1,77.0,74.9,73.0,71.4,69.0,89,83,78,29.92,29.76,5,2,7,0.00
2013-8-26,80.6,76.4,72.9,72.5,70.3,66.8,93,82,64,29.84,29.73,5,2,8,0.01
2013-8-27,82.2,77.1,72.1,69.7,68.2,65.6,84,74,63,29.90,29.81,5,2,7,0.00
2013-8-28,80.2,77.1,74.1,72.1,69.3,65.9,84,77,72,29.94,29.86,9,3,10,0.00
2013-8-29,80.3,76.8,71.9,71.2,67.1,59.7,84,72,56,30.02,29.90,9,4,15,0.00
2013-8-30,78.2,74.9,71.0,68.7,65.3,62.6,77,72,63,30.11,29.99,8,4,11,0.00
2013-8-31,78.3,75.1,71.6,67.1,65.5,62.2,81,72,59,30.14,30.08,7,3,10,0.00
2013-9-1,79.4,74.6,69.0,68.7,65.0,61.3,78,72,65,30.14,30.09,9,5,13,0.00
2013-9-2,79.5,75.1,68.9,68.2,64.8,59.4,80,71,53,30.17,30.10,9,5,12,0.00
2013-9-3,79.8,75.5,70.5,69.4,66.0,61.4,83,73,55,30.17,30.09,11,4,13,0.00
2013-9-4,78.1,74.6,69.2,68.6,65.6,61.0,81,74,59,30.14,29.98,9,4,11,0.00
2013-9-5,77.8,74.7,71.1,68.6,66.8,64.4,85,77,65,30.02,29.89,8,4,9,0.00
2013-9-6,79.2,73.8,68.1,68.6,64.8,58.2,81,74,64,29.94,29.85,8,3,10,0.00
2013-9-7,73.9,71.2,65.9,68.3,65.4,62.5,93,82,69,30.02,29.91,9,2,9,0.72
2013-9-8,78.3,72.7,67.2,68.7,65.6,61.5,89,79,67,30.15,30.00,6,3,8,0.00
2013-9-9,77.9,72.7,67.8,68.8,65.3,61.1,83,78,69,30.18,30.10,6,2,7,0.00
2013-9-10,78.1,72.9,68.1,69.1,63.4,59.5,80,72,57,30.15,30.01,6,3,9,0.00
2013-9-11,78.3,73.3,68.4,69.9,65.6,59.6,85,77,61,30.03,29.95,7,3,7,0.00
2013-9-12,79.5,74.6,69.2,69.2,65.8,60.8,86,75,60,30.08,30.00,6,3,8,0.00
2013-9-13,78.4,75.0,72.3,70.2,68.5,66.3,88,80,68,30.15,30.07,7,2,8,0.00
2013-9-14,77.0,74.3,72.1,68.5,67.0,63.9,84,78,65,30.14,30.00,9,2,12,0.00
2013-9-15,78.2,73.2,68.1,69.7,66.0,61.9,84,78,68,30.04,29.88,6,3,8,0.00
2013-9-16,77.2,73.2,69.4,70.5,67.6,62.8,89,83,76,29.94,29.86,6,2,8,0.00
2013-9-17,84.1,75.9,70.5,69.5,67.3,64.5,89,76,54,29.90,29.83,6,2,10,0.00
2013-9-18,77.9,73.7,69.2,67.4,65.4,63.3,87,76,62,29.96,29.87,5,2,8,0.00
2013-9-19,78.3,73.5,68.4,67.4,64.6,61.1,83,74,63,29.93,29.88,5,2,8,0.00
2013-9-20,77.3,72.8,67.9,71.0,66.5,60.5,87,81,67,30.08,29.92,6,3,12,0.00
2013-9-21,76.7,73.2,70.5,68.9,67.3,64.4,86,82,75,30.17,30.08,7,2,14,0.00
2013-9-22,77.2,72.4,67.4,68.9,65.6,61.6,86,79,70,30.20,30.14,8,4,12,0.00
2013-9-23,75.9,71.8,67.8,67.9,65.1,61.8,83,79,74,30.16,30.04,6,4,9,0.00
2013-9-24,74.6,71.3,66.5,66.5,64.3,60.0,84,79,73,30.05,29.93,6,3,9,0.00
2013-9-25,75.9,70.8,65.8,67.0,63.4,57.0,85,78,68,29.96,29.88,5,2,7,0.00
2013-9-26,76.6,72.1,67.3,68.7,61.7,52.5,81,70,47,29.95,29.87,7,3,7,0.00
2013-9-27,80.2,73.5,67.4,67.5,63.1,57.6,82,71,48,29.94,29.85,9,3,10,0.00
2013-9-28,77.8,71.2,67.0,66.4,64.3,58.6,90,80,52,29.92,29.84,10,4,16,0.17
2013-9-29,76.2,71.4,66.7,66.0,63.4,52.4,87,77,45,29.93,29.86,9,4,16,0.00
2013-9-30,80.4,73.4,68.5,69.0,65.4,59.2,84,76,62,29.93,29.84,9,4,16,0.00
2013-10-1,83.2,73.9,68.7,68.3,66.2,64.0,87,77,61,29.89,29.81,6,2,9,0.00
2013-10-2,79.4,73.0,67.7,66.0,63.4,59.8,85,72,60,29.84,29.73,5,1,5,0.00
2013-10-3,78.5,73.0,69.0,68.7,65.0,59.0,86,76,61,29.95,29.76,10,2,11,0.11
2013-10-4,79.2,73.6,69.5,68.7,64.3,61.4,84,73,62,30.03,29.91,6,2,7,0.00
2013-10-5,80.5,73.5,68.6,64.7,59.3,54.6,77,62,47,30.12,30.02,5,2,7,0.00
2013-10-6,75.6,70.5,66.2,67.6,61.3,53.6,83,73,61,30.12,30.05,5,3,7,0.00
2013-10-7,75.0,71.6,69.0,66.8,65.3,63.4,84,81,72,30.11,30.06,6,2,9,0.00
2013-10-8,75.2,70.5,66.6,66.5,63.2,59.7,84,78,67,30.12,30.05,9,3,11,0.00
2013-10-9,74.5,70.4,64.7,65.6,63.3,60.7,88,78,66,30.10,29.98,6,2,9,0.00
2013-10-10,74.6,70.0,65.0,63.2,60.8,58.3,80,73,61,30.02,29.90,6,2,8,0.00
2013-10-11,74.6,68.5,63.2,66.0,60.1,53.3,88,75,56,29.94,29.84,6,3,8,0.00
2013-10-12,74.4,68.4,62.2,65.2,59.2,50.5,85,73,63,30.06,29.90,6,3,9,0.00
2013-10-13,73.2,66.8,60.3,60.8,55.3,50.2,79,67,52,30.10,30.03,6,3,8,0.00
2013-10-14,72.3,67.0,60.9,61.7,56.3,50.8,77,69,57,30.13,30.06,5,2,7,0.00
2013-10-15,74.2,68.2,61.6,63.3,56.8,49.6,75,67,55,30.15,30.08,5,2,6,0.00
2013-10-16,73.7,68.2,62.0,66.0,57.8,47.7,87,70,58,30.12,30.02,5,2,5,0.00
2013-10-17,76.3,69.0,63.4,61.8,56.7,50.6,74,65,52,30.06,29.98,5,2,6,0.00
2013-10-18,74.4,67.9,62.5,63.9,56.9,48.5,82,68,53,30.01,29.94,5,3,7,0.00
2013-10-19,76.1,69.0,63.2,63.9,56.5,47.0,82,65,44,30.05,29.95,5,2,9,0.00
2013-10-20,73.5,68.3,63.3,62.6,59.4,52.4,84,73,57,30.10,30.02,6,2,6,0.00
2013-10-21,71.4,67.0,62.5,64.7,56.2,46.1,86,69,51,30.07,29.94,6,2,6,0.00
2013-10-22,73.8,67.9,63.1,62.4,57.4,50.7,86,69,59,29.97,29.89,9,4,13,0.07
2013-10-23,74.0,66.8,61.2,65.0,61.9,58.9,92,84,72,30.05,29.96,12,3,14,0.24
2013-10-24,75.4,68.4,64.2,64.6,61.1,59.1,85,78,61,30.04,29.94,6,1,7,0.00
2013-10-25,71.5,67.9,63.5,64.7,61.3,58.4,90,80,66,29.96,29.86,5,2,7,0.00
2013-10-26,75.3,70.5,66.1,62.1,56.0,47.1,78,61,38,30.17,29.92,12,4,18,0.00
2013-10-27,74.8,67.5,61.2,63.5,58.0,52.2,83,72,53,30.20,30.10,5,2,8,0.00
2013-10-28,72.0,66.4,62.1,64.1,60.5,56.5,87,81,74,30.16,29.97,5,2,8,0.00
2013-10-29,80.4,70.5,63.1,60.5,48.4,32.4,85,48,21,29.99,29.87,18,6,22,0.00
2013-10-30,70.8,65.2,60.0,50.2,41.7,31.3,69,44,26,30.17,29.99,14,4,15,0.00
2013-10-31,67.1,61.9,57.9,53.8,49.6,44.5,72,64,46,30.23,30.14,6,4,9,0.00
2013-11-1,66.7,61.3,55.9,53.4,49.1,45.6,71,64,55,30.25,30.16,5,3,7,0.00
2013-11-2,68.7,61.6,54.7,54.0,47.4,41.3,67,60,49,30.17,30.04,6,2,8,0.00
2013-11-3,71.0,63.2,55.7,59.0,48.4,42.1,73,59,39,30.09,30.00,5,2,5,0.00
2013-11-4,76.4,67.3,60.2,53.1,48.5,45.4,60,52,37,30.05,29.95,16,7,23,0.00
2013-11-5,78.5,72.2,65.7,55.8,53.0,50.4,66,51,38,30.07,29.97,16,5,20,0.00
2013-11-6,72.2,66.8,62.3,60.1,54.4,50.4,80,65,55,30.13,30.06,5,2,6,0.00
2013-11-7,72.4,64.2,59.7,59.9,54.6,49.2,81,71,59,30.10,30.02,5,2,6,0.00
2013-11-8,73.3,65.3,57.3,55.5,51.2,46.7,76,61,42,30.08,30.00,8,2,11,0.00
2013-11-9,71.8,64.9,59.8,55.7,51.2,43.0,71,61,40,30.25,30.07,7,2,7,0.00
2013-11-10,69.4,62.0,57.1,53.6,45.3,37.9,68,55,41,30.29,30.17,5,2,7,0.00
2013-11-11,70.6,63.8,58.7,53.2,46.6,37.7,66,54,44,30.17,30.04,8,2,9,0.00
2013-11-12,70.8,63.2,58.0,55.4,49.3,44.3,73,61,42,30.14,30.06,5,3,7,0.00
2013-11-13,67.5,61.6,57.9,57.1,52.7,47.4,88,73,57,30.14,30.06,6,3,8,0.04
2013-11-14,67.9,61.5,56.0,56.4,52.3,50.0,87,73,55,30.21,30.12,6,2,6,0.00
2013-11-15,69.7,59.8,51.7,53.1,44.6,26.3,78,61,23,30.20,29.91,11,4,16,0.00
2013-11-16,58.8,53.0,48.7,46.3,36.8,25.1,81,56,33,30.00,29.93,7,3,10,0.02
2013-11-17,60.0,54.0,48.0,45.1,38.2,27.5,76,56,35,29.99,29.87,6,3,7,0.00
2013-11-18,64.1,55.1,47.2,43.8,40.3,32.7,82,59,41,29.87,29.75,13,7,19,0.03
2013-11-19,69.4,60.8,55.4,47.8,41.5,36.0,61,49,37,29.91,29.79,13,6,21,0.00
2013-11-20,67.6,61.2,54.3,48.0,35.5,29.1,59,39,27,30.07,29.91,16,6,18,0.00
2013-11-21,65.2,55.9,47.5,36.8,31.6,24.5,55,41,22,30.07,29.82,10,6,14,0.00
2013-11-22,66.9,58.7,52.7,48.1,40.3,33.8,69,51,42,29.84,29.77,10,3,14,0.00
2013-11-23,60.7,55.7,51.7,47.0,42.3,35.6,70,61,51,29.91,29.80,6,2,7,0.00
2013-11-24,60.9,54.7,49.3,49.0,42.5,34.1,74,64,51,29.98,29.84,8,4,9,0.00
2013-11-25,60.6,53.6,47.9,42.5,38.6,33.9,68,57,38,30.14,29.98,7,3,8,0.00
2013-11-26,60.4,54.7,49.0,47.6,41.1,33.6,71,61,42,30.16,30.11,7,4,11,0.00
2013-11-27,59.8,56.5,54.5,47.6,42.7,39.2,65,60,53,30.16,30.07,10,4,15,0.00
2013-11-28,58.3,54.6,49.0,44.6,40.4,35.4,69,59,48,30.25,30.13,10,4,11,0.00
2013-11-29,59.4,54.6,47.6,44.3,38.8,33.8,70,56,42,30.30,30.22,7,3,9,0.00
2013-11-30,60.7,55.5,50.1,47.8,41.1,30.2,71,60,34,30.28,29.84,11,4,19,0.00
2013-12-1,61.5,54.9,49.6,43.4,32.5,18.6,71,45,24,30.05,29.76,24,7,26,0.00
2013-12-2,60.0,54.3,48.1,47.5,41.3,35.0,71,62,52,30.17,30.03,7,4,10,0.00
2013-12-3,61.1,55.5,49.0,49.8,43.8,37.4,74,65,50,30.27,30.16,9,4,13,0.00
2013-12-4,63.5,58.4,52.8,54.7,49.8,43.6,83,73,65,30.32,30.25,8,3,14,0.00
2013-12-5,61.5,55.9,50.7,52.8,49.0,45.4,84,78,63,30.36,30.28,6,3,6,0.00
2013-12-6,61.1,53.9,48.3,53.3,46.6,40.7,81,76,67,30.30,30.22,6,4,9,0.00
2013-12-7,59.3,53.6,48.7,49.5,45.5,40.6,80,74,61,30.28,30.21,7,4,8,0.00
2013-12-8,59.1,53.9,48.9,47.6,44.7,40.2,78,71,59,30.34,30.25,7,3,9,0.00
2013-12-9,61.5,56.7,50.9,52.1,46.6,41.6,80,69,57,30.39,30.32,9,4,15,0.00
2013-12-10,63.4,56.8,50.2,49.4,45.1,41.9,81,66,50,30.41,30.34,11,5,21,0.00
2013-12-11,65.2,59.2,53.7,51.0,42.6,32.0,74,56,33,30.40,30.31,10,6,13,0.00
2013-12-12,62.7,56.1,51.2,49.5,44.4,38.0,78,65,54,30.39,30.32,6,3,7,0.00
2013-12-13,61.3,56.7,52.9,53.7,50.2,45.5,85,79,74,30.35,30.25,6,2,7,0.00
2013-12-14,62.0,58.0,52.6,53.8,51.3,48.7,90,79,62,30.48,30.27,9,4,11,0.00
2013-12-15,62.3,57.3,51.2,52.7,48.3,43.1,82,72,56,30.50,30.41,10,4,13,0.00
2013-12-16,61.5,55.0,49.1,50.1,46.1,41.5,81,72,60,30.43,30.31,6,3,8,0.00
2013-12-17,63.0,57.6,53.4,52.4,48.8,45.1,81,73,58,30.36,30.30,6,3,8,0.00
2013-12-18,63.8,58.2,53.4,55.0,50.7,43.4,86,77,55,30.35,30.24,9,3,15,0.00
2013-12-19,62.6,58.2,53.6,54.9,46.6,39.1,90,66,52,30.24,29.91,15,5,16,0.21
2013-12-20,59.7,55.4,52.1,38.0,33.4,29.5,58,44,34,30.37,29.96,24,11,36,0.01
2013-12-21,61.3,54.7,48.1,48.0,41.9,33.8,75,62,48,30.47,30.35,8,2,10,0.00
2013-12-22,60.5,54.8,50.7,51.7,47.8,44.4,85,77,65,30.47,30.39,6,3,8,0.00
2013-12-23,59.3,53.1,47.6,52.5,47.7,43.3,86,82,73,30.41,30.26,5,3,7,0.00
2013-12-24,62.3,55.1,47.1,53.7,46.8,39.7,85,74,56,30.25,29.98,12,5,15,0.00
2013-12-25,60.0,58.0,56.0,57.0,50.6,37.9,95,78,47,29.97,29.61,24,11,27,1.44
2013-12-26,64.0,58.2,54.7,42.6,40.4,37.3,63,52,40,30.15,29.87,16,9,25,0.00
2013-12-27,65.8,58.9,51.5,53.1,46.7,42.0,73,64,54,30.15,29.99,7,3,11,0.00
2013-12-28,66.0,58.9,55.7,56.5,44.1,31.4,89,61,34,30.12,29.95,17,6,28,0.01
2013-12-29,61.1,56.0,49.5,43.8,34.4,25.1,70,45,30,30.40,30.13,16,4,21,0.00
2013-12-30,57.8,51.8,47.0,47.9,39.8,29.0,82,65,46,30.43,30.32,6,4,7,0.00
2013-12-31,59.5,52.1,45.7,47.7,41.8,36.2,79,68,53,30.33,30.15,6,3,7,0.00
2014-1-1,65.0,57.4,50.4,53.7,45.8,35.2,85,66,49,30.16,30.07,6,2,8,0.00
2014-1-2,60.9,58.4,56.0,55.3,53.6,51.6,89,84,80,30.15,30.08,7,3,12,0.00